MMCP

Details ICAO MMCP (CPE)
Name INGENIERO ALBERTO ACUNA ONGAY INTL
Region Mexico
Timezone America/Merida (UTC-6.0)
Plans Departing 15
Arriving 23
Stats Elevation 34 ft / 10 m (AMSL)
Location 19.816795° -90.500314°
Runways 1
Magnetic Variation 0.394° E
Sunrise 2017-12-13 12:29:20 UTC / 2017-12-13 06:29:20 Local
Sunset 2017-12-13 23:26:08 UTC / 2017-12-13 17:26:08 Local
Advertisement - Login to hide

Runways

ID Width Length Bearing (true) Bearing (mag) Surface Threshold Offset Overrun Length
16 148 ft / 45 m 8,264 ft / 2,519 m 166.22° 165.83° Asphalt 0 ft / 0 m 0 ft / 0 m
34 148 ft / 45 m 8,264 ft / 2,519 m 346.22° 345.83° Asphalt 0 ft / 0 m 160 ft / 49 m

Map

Weather


0- 5 10 15 20 25 30 35+ Temperature / ° C

Clouds and Precipitation
Forecast for 2017-12-13 12:00 UTC. Updated 21 minutes ago

Ground ~20,000 ft ~40,000 ft Winds

METAR

Not found

TAF

TAF MMCP 130526Z 1306/1406 03005KT P6SM SKC FM131800 03012KT P6SM SCT020 FM140200 08005KT P6SM SCT020

Frequencies

Tower 118.50 MHz CAMPECHE TWR
Warning: Do not use this data for real-world aviation or navigation. No guarantee of current accuracy is given.